Larkspur — C6BR6 — position and weather

sailwx.info

Track history (hours):
 
Tides and Currents Weather Stations Pressure Air Temp Water Temp Dewpoint Dewpoint Depression Visibility Wind Speed Wind Dir Waves Ship Positions

Larkspur

Operator: Transeuropa Lines

Last reported at 2016-Jul-27 18:34 UTC. Time now 2016-Jul-27 19:14 UTC.
Position N 37°33' E 006°14'.

Length 225 m; draft 7.6 m.

Type: Tanker. MMSI: 311000344.

Date/timePositionNaut miles runAvg speedWind from/ knotsBaromVisibWave heightAir tempDewpointWater temp
2016-Jul-27 18:34N 37°33' E 006°14'29716.1
2016-Jul-27 00:05N 36°58' E 012°25'1017.0
2016-Jul-26 23:29N 36°53' E 012°36'1516.7
2016-Jul-26 22:33N 36°47' E 012°54'1616.1
2016-Jul-26 21:33N 36°39' E 013°12'1616.2
2016-Jul-26 20:33N 36°32' E 013°29'1616.3
2016-Jul-26 19:33N 36°25' E 013°48'1615.6
2016-Jul-26 18:33N 36°18' E 014°05'1514.8
2016-Jul-26 17:33N 36°12' E 014°22'1615.5
2016-Jul-26 16:33N 36°06' E 014°39'1211.7
2016-Jul-26 15:33N 36°02' E 014°53'1414.4
2016-Jul-26 14:34N 35°60' E 015°11'1615.9
2016-Jul-26 13:33N 35°56' E 015°30'  
2016-Jul-19 21:14N 37°21' E 025°55'1116.4
2016-Jul-19 20:33N 37°32' E 025°50'  
Track history (hours):
 
Tides and Currents Weather Stations Pressure Air Temp Water Temp Dewpoint Dewpoint Depression Visibility Wind Speed Wind Dir Waves Ship Positions

Larkspur

Operator: Transeuropa Lines

Last reported at 2016-Jul-27 18:34 UTC. Time now 2016-Jul-27 19:14 UTC.
Position N 37°33' E 006°14'.

Length 225 m; draft 7.6 m.

Type: Tanker. MMSI: 311000344.

Date/timePositionNaut miles runAvg speedWind from/ knotsBaromVisibWave heightAir tempDewpointWater temp
2016-Jul-27 18:34N 37°33' E 006°14'29716.1
2016-Jul-27 00:05N 36°58' E 012°25'1017.0
2016-Jul-26 23:29N 36°53' E 012°36'1516.7
2016-Jul-26 22:33N 36°47' E 012°54'1616.1
2016-Jul-26 21:33N 36°39' E 013°12'1616.2
2016-Jul-26 20:33N 36°32' E 013°29'1616.3
2016-Jul-26 19:33N 36°25' E 013°48'1615.6
2016-Jul-26 18:33N 36°18' E 014°05'1514.8
2016-Jul-26 17:33N 36°12' E 014°22'1615.5
2016-Jul-26 16:33N 36°06' E 014°39'1211.7
2016-Jul-26 15:33N 36°02' E 014°53'1414.4
2016-Jul-26 14:34N 35°60' E 015°11'1615.9
2016-Jul-26 13:33N 35°56' E 015°30'  
2016-Jul-19 21:14N 37°21' E 025°55'1116.4
2016-Jul-19 20:33N 37°32' E 025°50'  

Dump ship's entire track history